Knowles, Oklahoma
Current Conditions -  °F | °C
As of 10:35 PM on Friday 24 Oct 2014 (Local Time) from KPYX Reporting Station
Clear Clear  
Wind Chill: 58°   Ceiling: Unl
Heat Index: 58°   Visibility: 10mi
Dew Point: 47°   Wind: 8mph
Humidity: 66%   Direction: 170°S
Pressure: 30.1"   Gusts: NA
Location:  36.87°N, 100.19°W
Report Text: KPYX 250335Z AUTO 17007KT 10SM CLR 15/08 A3010 RMK AO2 T01470083
Loading
Personal Weather Stations






























Interactive Weather Map
Tropical Storm Tracking
New forecast layout! Learn more

10-Day Weather Forecast

Advertisements
Track Severe Weather on mobile